sensor_id;sensor_type;location;lat;lon;timestamp;P1;durP1;ratioP1;P2;durP2;ratioP2
5493;SDS011;2769;49.864;8.656;2023-02-28T00:01:09;1.97;;;1.93;;
5493;SDS011;2769;49.864;8.656;2023-02-28T00:03:39;2.17;;;1.97;;
5493;SDS011;2769;49.864;8.656;2023-02-28T00:06:07;2.20;;;2.10;;
5493;SDS011;2769;49.864;8.656;2023-02-28T00:08:36;1.83;;;1.73;;
5493;SDS011;2769;49.864;8.656;2023-02-28T00:11:05;3.90;;;1.80;;
5493;SDS011;2769;49.864;8.656;2023-02-28T00:13:35;2.00;;;1.90;;
5493;SDS011;2769;49.864;8.656;2023-02-28T00:16:05;3.47;;;2.33;;
5493;SDS011;2769;49.864;8.656;2023-02-28T00:18:35;2.10;;;2.00;;
5493;SDS011;2769;49.864;8.656;2023-02-28T00:21:05;3.80;;;2.07;;
5493;SDS011;2769;49.864;8.656;2023-02-28T00:23:33;2.03;;;1.90;;
5493;SDS011;2769;49.864;8.656;2023-02-28T00:26:02;2.00;;;1.90;;
5493;SDS011;2769;49.864;8.656;2023-02-28T00:28:30;1.90;;;1.80;;
5493;SDS011;2769;49.864;8.656;2023-02-28T00:30:58;2.10;;;2.00;;
5493;SDS011;2769;49.864;8.656;2023-02-28T00:33:27;2.33;;;2.13;;
5493;SDS011;2769;49.864;8.656;2023-02-28T00:36:03;3.70;;;2.50;;
5493;SDS011;2769;49.864;8.656;2023-02-28T00:38:35;2.20;;;2.10;;
5493;SDS011;2769;49.864;8.656;2023-02-28T00:41:04;2.77;;;2.57;;
5493;SDS011;2769;49.864;8.656;2023-02-28T00:43:32;2.50;;;2.30;;
5493;SDS011;2769;49.864;8.656;2023-02-28T00:46:00;2.40;;;2.30;;
5493;SDS011;2769;49.864;8.656;2023-02-28T00:48:29;2.87;;;2.57;;
5493;SDS011;2769;49.864;8.656;2023-02-28T00:50:57;2.43;;;2.23;;
5493;SDS011;2769;49.864;8.656;2023-02-28T00:53:26;2.50;;;2.40;;
5493;SDS011;2769;49.864;8.656;2023-02-28T00:55:56;2.90;;;2.70;;
5493;SDS011;2769;49.864;8.656;2023-02-28T00:58:25;2.77;;;2.57;;
5493;SDS011;2769;49.864;8.656;2023-02-28T01:00:53;2.37;;;2.27;;
5493;SDS011;2769;49.864;8.656;2023-02-28T01:03:24;2.63;;;2.43;;
5493;SDS011;2769;49.864;8.656;2023-02-28T01:05:52;2.30;;;2.20;;
5493;SDS011;2769;49.864;8.656;2023-02-28T01:08:21;2.07;;;1.97;;
5493;SDS011;2769;49.864;8.656;2023-02-28T01:10:50;2.50;;;2.30;;
5493;SDS011;2769;49.864;8.656;2023-02-28T01:13:18;2.57;;;2.40;;
5493;SDS011;2769;49.864;8.656;2023-02-28T01:15:49;2.90;;;2.13;;
5493;SDS011;2769;49.864;8.656;2023-02-28T01:18:18;3.03;;;2.17;;
5493;SDS011;2769;49.864;8.656;2023-02-28T01:20:47;2.57;;;2.37;;
5493;SDS011;2769;49.864;8.656;2023-02-28T01:23:15;2.43;;;2.33;;
5493;SDS011;2769;49.864;8.656;2023-02-28T01:25:43;2.47;;;2.37;;
5493;SDS011;2769;49.864;8.656;2023-02-28T01:28:12;2.67;;;2.47;;
5493;SDS011;2769;49.864;8.656;2023-02-28T01:30:47;2.60;;;2.40;;
5493;SDS011;2769;49.864;8.656;2023-02-28T01:33:15;2.63;;;2.53;;
5493;SDS011;2769;49.864;8.656;2023-02-28T01:35:43;2.90;;;2.40;;
5493;SDS011;2769;49.864;8.656;2023-02-28T01:38:11;3.03;;;2.70;;
5493;SDS011;2769;49.864;8.656;2023-02-28T01:40:48;2.63;;;2.43;;
5493;SDS011;2769;49.864;8.656;2023-02-28T01:43:19;2.30;;;2.10;;
5493;SDS011;2769;49.864;8.656;2023-02-28T01:45:49;2.30;;;2.20;;
5493;SDS011;2769;49.864;8.656;2023-02-28T01:48:18;2.47;;;2.27;;
5493;SDS011;2769;49.864;8.656;2023-02-28T01:50:47;5.43;;;2.50;;
5493;SDS011;2769;49.864;8.656;2023-02-28T01:53:16;2.30;;;2.20;;
5493;SDS011;2769;49.864;8.656;2023-02-28T01:55:47;2.73;;;2.53;;
5493;SDS011;2769;49.864;8.656;2023-02-28T01:58:17;2.13;;;1.93;;
5493;SDS011;2769;49.864;8.656;2023-02-28T02:00:46;2.30;;;2.20;;
5493;SDS011;2769;49.864;8.656;2023-02-28T02:03:14;2.60;;;2.40;;
5493;SDS011;2769;49.864;8.656;2023-02-28T02:05:45;2.63;;;2.50;;
5493;SDS011;2769;49.864;8.656;2023-02-28T02:08:15;2.70;;;2.50;;
5493;SDS011;2769;49.864;8.656;2023-02-28T02:10:45;2.50;;;2.40;;
5493;SDS011;2769;49.864;8.656;2023-02-28T02:13:27;3.87;;;2.37;;
5493;SDS011;2769;49.864;8.656;2023-02-28T02:16:06;2.90;;;2.70;;
5493;SDS011;2769;49.864;8.656;2023-02-28T02:18:43;2.37;;;2.27;;
5493;SDS011;2769;49.864;8.656;2023-02-28T02:30:27;3.03;;;2.80;;
5493;SDS011;2769;49.864;8.656;2023-02-28T02:33:17;2.67;;;2.47;;
5493;SDS011;2769;49.864;8.656;2023-02-28T02:35:58;2.90;;;2.80;;
5493;SDS011;2769;49.864;8.656;2023-02-28T02:38:31;3.43;;;3.13;;
5493;SDS011;2769;49.864;8.656;2023-02-28T02:41:04;3.73;;;3.40;;
5493;SDS011;2769;49.864;8.656;2023-02-28T02:43:36;3.80;;;3.40;;
5493;SDS011;2769;49.864;8.656;2023-02-28T02:46:09;4.57;;;3.93;;
5493;SDS011;2769;49.864;8.656;2023-02-28T02:48:43;5.27;;;4.03;;
5493;SDS011;2769;49.864;8.656;2023-02-28T02:51:14;4.43;;;4.03;;
5493;SDS011;2769;49.864;8.656;2023-02-28T02:53:45;4.43;;;4.00;;
5493;SDS011;2769;49.864;8.656;2023-02-28T02:56:16;6.57;;;3.83;;
5493;SDS011;2769;49.864;8.656;2023-02-28T02:58:47;4.17;;;3.77;;
5493;SDS011;2769;49.864;8.656;2023-02-28T03:01:17;4.77;;;3.90;;
5493;SDS011;2769;49.864;8.656;2023-02-28T03:03:55;4.20;;;3.80;;
5493;SDS011;2769;49.864;8.656;2023-02-28T03:06:25;5.03;;;4.30;;
5493;SDS011;2769;49.864;8.656;2023-02-28T03:08:54;4.60;;;3.47;;
5493;SDS011;2769;49.864;8.656;2023-02-28T03:11:22;4.67;;;4.27;;
5493;SDS011;2769;49.864;8.656;2023-02-28T03:14:03;4.27;;;3.77;;
5493;SDS011;2769;49.864;8.656;2023-02-28T03:16:59;4.37;;;3.80;;
5493;SDS011;2769;49.864;8.656;2023-02-28T03:19:43;5.03;;;4.20;;
5493;SDS011;2769;49.864;8.656;2023-02-28T03:22:22;4.10;;;3.67;;
5493;SDS011;2769;49.864;8.656;2023-02-28T03:25:01;4.80;;;3.70;;
5493;SDS011;2769;49.864;8.656;2023-02-28T03:27:34;5.43;;;5.03;;
5493;SDS011;2769;49.864;8.656;2023-02-28T03:30:06;4.10;;;3.57;;
5493;SDS011;2769;49.864;8.656;2023-02-28T03:32:38;3.60;;;3.40;;
5493;SDS011;2769;49.864;8.656;2023-02-28T03:35:10;3.90;;;3.47;;
5493;SDS011;2769;49.864;8.656;2023-02-28T03:37:49;4.17;;;3.80;;
5493;SDS011;2769;49.864;8.656;2023-02-28T03:40:19;3.93;;;3.63;;
5493;SDS011;2769;49.864;8.656;2023-02-28T03:42:50;3.87;;;3.57;;
5493;SDS011;2769;49.864;8.656;2023-02-28T03:45:21;7.53;;;3.70;;
5493;SDS011;2769;49.864;8.656;2023-02-28T03:47:52;4.30;;;3.90;;
5493;SDS011;2769;49.864;8.656;2023-02-28T03:50:22;4.57;;;3.57;;
5493;SDS011;2769;49.864;8.656;2023-02-28T03:52:55;4.37;;;3.97;;
5493;SDS011;2769;49.864;8.656;2023-02-28T03:55:28;4.57;;;3.77;;
5493;SDS011;2769;49.864;8.656;2023-02-28T03:58:01;4.00;;;3.70;;
5493;SDS011;2769;49.864;8.656;2023-02-28T04:00:30;3.50;;;3.20;;
5493;SDS011;2769;49.864;8.656;2023-02-28T04:03:01;6.07;;;4.23;;
5493;SDS011;2769;49.864;8.656;2023-02-28T04:05:29;7.03;;;4.33;;
5493;SDS011;2769;49.864;8.656;2023-02-28T04:08:04;7.70;;;5.20;;
5493;SDS011;2769;49.864;8.656;2023-02-28T04:10:32;10.73;;;5.27;;
5493;SDS011;2769;49.864;8.656;2023-02-28T04:13:00;7.83;;;5.47;;
5493;SDS011;2769;49.864;8.656;2023-02-28T04:15:28;6.93;;;5.17;;
5493;SDS011;2769;49.864;8.656;2023-02-28T04:17:56;7.47;;;4.73;;
5493;SDS011;2769;49.864;8.656;2023-02-28T04:20:24;8.83;;;5.60;;
5493;SDS011;2769;49.864;8.656;2023-02-28T04:22:55;7.40;;;5.47;;
5493;SDS011;2769;49.864;8.656;2023-02-28T04:25:24;5.23;;;4.63;;
5493;SDS011;2769;49.864;8.656;2023-02-28T04:27:53;6.53;;;5.40;;
5493;SDS011;2769;49.864;8.656;2023-02-28T04:30:20;5.70;;;4.60;;
5493;SDS011;2769;49.864;8.656;2023-02-28T04:32:48;6.03;;;4.70;;
5493;SDS011;2769;49.864;8.656;2023-02-28T04:35:16;5.90;;;4.97;;
5493;SDS011;2769;49.864;8.656;2023-02-28T04:37:44;4.57;;;4.17;;
5493;SDS011;2769;49.864;8.656;2023-02-28T04:40:12;5.80;;;4.03;;
5493;SDS011;2769;49.864;8.656;2023-02-28T04:42:41;4.87;;;4.20;;
5493;SDS011;2769;49.864;8.656;2023-02-28T04:45:09;4.80;;;4.30;;
5493;SDS011;2769;49.864;8.656;2023-02-28T04:47:38;4.90;;;4.37;;
5493;SDS011;2769;49.864;8.656;2023-02-28T04:50:06;4.77;;;4.37;;
5493;SDS011;2769;49.864;8.656;2023-02-28T04:52:35;5.77;;;4.33;;
5493;SDS011;2769;49.864;8.656;2023-02-28T04:55:03;8.00;;;3.90;;
5493;SDS011;2769;49.864;8.656;2023-02-28T04:57:31;5.90;;;4.50;;
5493;SDS011;2769;49.864;8.656;2023-02-28T05:00:01;4.30;;;3.90;;
5493;SDS011;2769;49.864;8.656;2023-02-28T05:02:33;4.93;;;4.47;;
5493;SDS011;2769;49.864;8.656;2023-02-28T05:05:01;4.20;;;3.90;;
5493;SDS011;2769;49.864;8.656;2023-02-28T05:07:29;4.57;;;4.17;;
5493;SDS011;2769;49.864;8.656;2023-02-28T05:09:57;4.40;;;4.00;;
5493;SDS011;2769;49.864;8.656;2023-02-28T05:12:25;4.60;;;4.20;;
5493;SDS011;2769;49.864;8.656;2023-02-28T05:14:53;4.30;;;4.00;;
5493;SDS011;2769;49.864;8.656;2023-02-28T05:17:22;5.53;;;4.37;;
5493;SDS011;2769;49.864;8.656;2023-02-28T05:19:50;4.07;;;3.77;;
5493;SDS011;2769;49.864;8.656;2023-02-28T05:22:21;4.97;;;4.33;;
5493;SDS011;2769;49.864;8.656;2023-02-28T05:24:51;4.50;;;4.10;;
5493;SDS011;2769;49.864;8.656;2023-02-28T05:27:19;5.17;;;4.67;;
5493;SDS011;2769;49.864;8.656;2023-02-28T05:29:47;4.30;;;4.00;;
5493;SDS011;2769;49.864;8.656;2023-02-28T05:32:15;4.90;;;4.40;;
5493;SDS011;2769;49.864;8.656;2023-02-28T05:34:45;6.63;;;4.73;;
5493;SDS011;2769;49.864;8.656;2023-02-28T05:37:12;4.20;;;3.80;;
5493;SDS011;2769;49.864;8.656;2023-02-28T05:39:42;5.53;;;5.03;;
5493;SDS011;2769;49.864;8.656;2023-02-28T05:42:10;8.37;;;4.80;;
5493;SDS011;2769;49.864;8.656;2023-02-28T05:44:38;6.87;;;4.60;;
5493;SDS011;2769;49.864;8.656;2023-02-28T05:47:05;10.20;;;5.83;;
5493;SDS011;2769;49.864;8.656;2023-02-28T05:49:33;8.10;;;4.70;;
5493;SDS011;2769;49.864;8.656;2023-02-28T05:52:03;10.70;;;5.00;;
5493;SDS011;2769;49.864;8.656;2023-02-28T05:54:31;5.33;;;4.60;;
5493;SDS011;2769;49.864;8.656;2023-02-28T05:56:59;5.73;;;4.17;;
5493;SDS011;2769;49.864;8.656;2023-02-28T05:59:30;5.37;;;4.17;;
5493;SDS011;2769;49.864;8.656;2023-02-28T06:01:57;4.43;;;4.00;;
5493;SDS011;2769;49.864;8.656;2023-02-28T06:04:25;4.57;;;4.10;;
5493;SDS011;2769;49.864;8.656;2023-02-28T06:06:57;6.27;;;4.60;;
5493;SDS011;2769;49.864;8.656;2023-02-28T06:09:27;4.87;;;4.47;;
5493;SDS011;2769;49.864;8.656;2023-02-28T06:11:57;5.90;;;4.17;;
5493;SDS011;2769;49.864;8.656;2023-02-28T06:14:25;4.83;;;4.40;;
5493;SDS011;2769;49.864;8.656;2023-02-28T06:16:53;6.30;;;4.20;;
5493;SDS011;2769;49.864;8.656;2023-02-28T06:19:26;5.47;;;4.63;;
5493;SDS011;2769;49.864;8.656;2023-02-28T06:21:55;5.00;;;4.40;;
5493;SDS011;2769;49.864;8.656;2023-02-28T06:24:24;4.60;;;4.13;;
5493;SDS011;2769;49.864;8.656;2023-02-28T06:26:55;5.13;;;4.73;;
5493;SDS011;2769;49.864;8.656;2023-02-28T06:29:25;4.50;;;4.10;;
5493;SDS011;2769;49.864;8.656;2023-02-28T06:31:53;5.03;;;4.20;;
5493;SDS011;2769;49.864;8.656;2023-02-28T06:34:21;7.73;;;4.60;;
5493;SDS011;2769;49.864;8.656;2023-02-28T06:36:50;5.10;;;4.60;;
5493;SDS011;2769;49.864;8.656;2023-02-28T06:39:18;5.23;;;3.97;;
5493;SDS011;2769;49.864;8.656;2023-02-28T06:41:46;4.67;;;4.30;;
5493;SDS011;2769;49.864;8.656;2023-02-28T06:44:22;6.57;;;4.17;;
5493;SDS011;2769;49.864;8.656;2023-02-28T06:46:51;4.67;;;4.23;;
5493;SDS011;2769;49.864;8.656;2023-02-28T06:49:19;3.93;;;3.67;;
5493;SDS011;2769;49.864;8.656;2023-02-28T06:51:47;4.77;;;4.03;;
5493;SDS011;2769;49.864;8.656;2023-02-28T06:54:14;4.13;;;3.83;;
5493;SDS011;2769;49.864;8.656;2023-02-28T06:56:43;3.80;;;3.50;;
5493;SDS011;2769;49.864;8.656;2023-02-28T06:59:10;4.07;;;3.67;;
5493;SDS011;2769;49.864;8.656;2023-02-28T07:01:40;3.90;;;3.60;;
5493;SDS011;2769;49.864;8.656;2023-02-28T07:04:08;3.97;;;3.67;;
5493;SDS011;2769;49.864;8.656;2023-02-28T07:06:36;4.70;;;4.30;;
5493;SDS011;2769;49.864;8.656;2023-02-28T07:09:04;4.20;;;3.80;;
5493;SDS011;2769;49.864;8.656;2023-02-28T07:11:33;4.13;;;3.83;;
5493;SDS011;2769;49.864;8.656;2023-02-28T07:14:01;3.47;;;3.27;;
5493;SDS011;2769;49.864;8.656;2023-02-28T07:16:29;4.13;;;3.73;;
5493;SDS011;2769;49.864;8.656;2023-02-28T07:18:59;4.00;;;3.70;;
5493;SDS011;2769;49.864;8.656;2023-02-28T07:21:26;8.33;;;4.00;;
5493;SDS011;2769;49.864;8.656;2023-02-28T07:23:55;4.07;;;3.70;;
5493;SDS011;2769;49.864;8.656;2023-02-28T07:26:24;3.77;;;3.47;;
5493;SDS011;2769;49.864;8.656;2023-02-28T07:28:52;4.73;;;3.57;;
5493;SDS011;2769;49.864;8.656;2023-02-28T07:31:20;4.97;;;3.70;;
5493;SDS011;2769;49.864;8.656;2023-02-28T07:33:48;4.00;;;3.70;;
5493;SDS011;2769;49.864;8.656;2023-02-28T07:36:18;4.43;;;3.83;;
5493;SDS011;2769;49.864;8.656;2023-02-28T07:38:46;5.20;;;3.60;;
5493;SDS011;2769;49.864;8.656;2023-02-28T07:41:16;3.87;;;3.57;;
5493;SDS011;2769;49.864;8.656;2023-02-28T07:43:45;3.90;;;3.60;;
5493;SDS011;2769;49.864;8.656;2023-02-28T07:46:13;3.43;;;3.23;;
5493;SDS011;2769;49.864;8.656;2023-02-28T07:48:43;3.17;;;2.97;;
5493;SDS011;2769;49.864;8.656;2023-02-28T07:51:11;5.23;;;3.20;;
5493;SDS011;2769;49.864;8.656;2023-02-28T07:53:41;3.23;;;2.97;;
5493;SDS011;2769;49.864;8.656;2023-02-28T07:56:08;4.00;;;3.60;;
5493;SDS011;2769;49.864;8.656;2023-02-28T07:58:37;3.20;;;3.00;;
5493;SDS011;2769;49.864;8.656;2023-02-28T08:01:05;3.40;;;3.10;;
5493;SDS011;2769;49.864;8.656;2023-02-28T08:03:34;2.60;;;2.50;;
5493;SDS011;2769;49.864;8.656;2023-02-28T08:06:02;3.53;;;3.30;;
5493;SDS011;2769;49.864;8.656;2023-02-28T08:08:31;3.03;;;2.83;;
5493;SDS011;2769;49.864;8.656;2023-02-28T08:11:00;6.97;;;3.07;;
5493;SDS011;2769;49.864;8.656;2023-02-28T08:13:29;3.57;;;3.27;;
5493;SDS011;2769;49.864;8.656;2023-02-28T08:16:01;5.23;;;3.40;;
5493;SDS011;2769;49.864;8.656;2023-02-28T08:18:29;3.20;;;2.90;;
5493;SDS011;2769;49.864;8.656;2023-02-28T08:20:57;3.27;;;2.97;;
5493;SDS011;2769;49.864;8.656;2023-02-28T08:23:26;3.10;;;2.90;;
5493;SDS011;2769;49.864;8.656;2023-02-28T08:25:54;2.90;;;2.70;;
5493;SDS011;2769;49.864;8.656;2023-02-28T08:28:23;3.50;;;3.20;;
5493;SDS011;2769;49.864;8.656;2023-02-28T08:30:53;3.17;;;2.87;;
5493;SDS011;2769;49.864;8.656;2023-02-28T08:33:21;2.93;;;2.73;;
5493;SDS011;2769;49.864;8.656;2023-02-28T08:35:51;2.93;;;2.73;;
5493;SDS011;2769;49.864;8.656;2023-02-28T08:38:20;2.70;;;2.50;;
5493;SDS011;2769;49.864;8.656;2023-02-28T08:40:48;3.20;;;2.53;;
5493;SDS011;2769;49.864;8.656;2023-02-28T08:43:19;3.83;;;3.20;;
5493;SDS011;2769;49.864;8.656;2023-02-28T08:45:48;3.13;;;2.90;;
5493;SDS011;2769;49.864;8.656;2023-02-28T08:48:18;4.00;;;3.10;;
5493;SDS011;2769;49.864;8.656;2023-02-28T08:50:54;3.93;;;3.47;;
5493;SDS011;2769;49.864;8.656;2023-02-28T08:53:33;3.50;;;3.20;;
5493;SDS011;2769;49.864;8.656;2023-02-28T08:56:02;3.90;;;3.60;;
5493;SDS011;2769;49.864;8.656;2023-02-28T08:58:31;4.17;;;3.57;;
5493;SDS011;2769;49.864;8.656;2023-02-28T09:01:06;3.87;;;3.67;;
5493;SDS011;2769;49.864;8.656;2023-02-28T09:03:35;4.03;;;3.60;;
5493;SDS011;2769;49.864;8.656;2023-02-28T09:06:03;4.23;;;3.87;;
5493;SDS011;2769;49.864;8.656;2023-02-28T09:08:32;4.97;;;4.00;;
5493;SDS011;2769;49.864;8.656;2023-02-28T09:11:00;4.87;;;4.47;;
5493;SDS011;2769;49.864;8.656;2023-02-28T09:13:29;6.17;;;4.37;;
5493;SDS011;2769;49.864;8.656;2023-02-28T09:15:59;4.83;;;4.33;;
5493;SDS011;2769;49.864;8.656;2023-02-28T09:18:29;4.43;;;3.97;;
5493;SDS011;2769;49.864;8.656;2023-02-28T09:20:58;4.20;;;3.80;;
5493;SDS011;2769;49.864;8.656;2023-02-28T09:23:26;4.90;;;4.30;;
5493;SDS011;2769;49.864;8.656;2023-02-28T09:25:54;4.53;;;4.07;;
5493;SDS011;2769;49.864;8.656;2023-02-28T09:28:22;5.13;;;4.50;;
5493;SDS011;2769;49.864;8.656;2023-02-28T09:30:51;5.80;;;4.27;;
5493;SDS011;2769;49.864;8.656;2023-02-28T09:33:21;6.03;;;4.57;;
5493;SDS011;2769;49.864;8.656;2023-02-28T09:35:56;5.10;;;4.60;;
5493;SDS011;2769;49.864;8.656;2023-02-28T09:38:25;5.47;;;4.97;;
5493;SDS011;2769;49.864;8.656;2023-02-28T09:40:55;4.30;;;4.00;;
5493;SDS011;2769;49.864;8.656;2023-02-28T09:43:25;6.10;;;5.50;;
5493;SDS011;2769;49.864;8.656;2023-02-28T09:45:55;4.90;;;4.43;;
5493;SDS011;2769;49.864;8.656;2023-02-28T09:48:28;6.37;;;4.80;;
5493;SDS011;2769;49.864;8.656;2023-02-28T09:51:04;6.57;;;5.40;;
5493;SDS011;2769;49.864;8.656;2023-02-28T09:53:33;6.57;;;4.33;;
5493;SDS011;2769;49.864;8.656;2023-02-28T09:56:07;5.33;;;4.83;;
5493;SDS011;2769;49.864;8.656;2023-02-28T09:58:37;5.53;;;4.53;;
5493;SDS011;2769;49.864;8.656;2023-02-28T10:01:09;5.27;;;4.77;;
5493;SDS011;2769;49.864;8.656;2023-02-28T10:03:46;5.67;;;4.90;;
5493;SDS011;2769;49.864;8.656;2023-02-28T10:06:19;5.03;;;4.53;;
5493;SDS011;2769;49.864;8.656;2023-02-28T10:08:50;6.63;;;5.03;;
5493;SDS011;2769;49.864;8.656;2023-02-28T10:11:20;5.57;;;5.07;;
5493;SDS011;2769;49.864;8.656;2023-02-28T10:13:52;7.03;;;6.23;;
5493;SDS011;2769;49.864;8.656;2023-02-28T10:16:25;5.27;;;4.73;;
5493;SDS011;2769;49.864;8.656;2023-02-28T10:18:57;7.17;;;5.80;;
5493;SDS011;2769;49.864;8.656;2023-02-28T10:21:31;4.87;;;4.43;;
5493;SDS011;2769;49.864;8.656;2023-02-28T10:24:03;6.67;;;4.67;;
5493;SDS011;2769;49.864;8.656;2023-02-28T10:26:35;5.97;;;5.07;;
5493;SDS011;2769;49.864;8.656;2023-02-28T10:29:04;5.50;;;4.90;;
5493;SDS011;2769;49.864;8.656;2023-02-28T10:31:32;6.80;;;5.50;;
5493;SDS011;2769;49.864;8.656;2023-02-28T10:34:00;5.70;;;5.20;;
5493;SDS011;2769;49.864;8.656;2023-02-28T10:36:31;7.40;;;5.10;;
5493;SDS011;2769;49.864;8.656;2023-02-28T10:39:01;5.33;;;4.90;;
5493;SDS011;2769;49.864;8.656;2023-02-28T10:42:04;6.13;;;5.53;;
5493;SDS011;2769;49.864;8.656;2023-02-28T10:44:33;6.80;;;4.97;;
5493;SDS011;2769;49.864;8.656;2023-02-28T10:47:01;6.63;;;5.37;;
5493;SDS011;2769;49.864;8.656;2023-02-28T10:49:29;6.17;;;5.57;;
5493;SDS011;2769;49.864;8.656;2023-02-28T10:51:58;5.27;;;4.83;;
5493;SDS011;2769;49.864;8.656;2023-02-28T10:54:28;5.50;;;5.00;;
5493;SDS011;2769;49.864;8.656;2023-02-28T10:59:52;8.70;;;4.97;;
5493;SDS011;2769;49.864;8.656;2023-02-28T11:02:29;5.27;;;4.77;;
5493;SDS011;2769;49.864;8.656;2023-02-28T11:05:00;5.27;;;4.80;;
5493;SDS011;2769;49.864;8.656;2023-02-28T11:07:28;6.27;;;5.67;;
5493;SDS011;2769;49.864;8.656;2023-02-28T11:10:19;6.03;;;5.33;;
5493;SDS011;2769;49.864;8.656;2023-02-28T11:12:53;4.97;;;4.57;;
5493;SDS011;2769;49.864;8.656;2023-02-28T11:15:24;5.77;;;5.27;;
5493;SDS011;2769;49.864;8.656;2023-02-28T11:17:54;6.90;;;5.17;;
5493;SDS011;2769;49.864;8.656;2023-02-28T11:20:23;6.50;;;5.30;;
5493;SDS011;2769;49.864;8.656;2023-02-28T11:22:54;6.93;;;4.90;;
5493;SDS011;2769;49.864;8.656;2023-02-28T11:25:24;5.80;;;5.30;;
5493;SDS011;2769;49.864;8.656;2023-02-28T11:27:55;6.10;;;5.53;;
5493;SDS011;2769;49.864;8.656;2023-02-28T11:30:25;7.80;;;5.60;;
5493;SDS011;2769;49.864;8.656;2023-02-28T11:32:58;6.27;;;5.67;;
5493;SDS011;2769;49.864;8.656;2023-02-28T11:35:27;6.43;;;5.60;;
5493;SDS011;2769;49.864;8.656;2023-02-28T11:37:57;7.17;;;4.90;;
5493;SDS011;2769;49.864;8.656;2023-02-28T11:40:28;6.73;;;6.07;;
5493;SDS011;2769;49.864;8.656;2023-02-28T11:43:06;6.07;;;5.47;;
5493;SDS011;2769;49.864;8.656;2023-02-28T11:45:52;6.83;;;5.90;;
5493;SDS011;2769;49.864;8.656;2023-02-28T11:48:27;7.10;;;5.80;;
5493;SDS011;2769;49.864;8.656;2023-02-28T11:51:02;7.23;;;5.83;;
5493;SDS011;2769;49.864;8.656;2023-02-28T11:56:32;6.50;;;5.50;;
5493;SDS011;2769;49.864;8.656;2023-02-28T11:59:13;6.60;;;6.00;;
5493;SDS011;2769;49.864;8.656;2023-02-28T12:04:48;6.67;;;5.97;;
5493;SDS011;2769;49.864;8.656;2023-02-28T12:07:24;9.63;;;5.97;;
5493;SDS011;2769;49.864;8.656;2023-02-28T12:09:57;6.10;;;5.43;;
5493;SDS011;2769;49.864;8.656;2023-02-28T12:12:35;5.97;;;5.47;;
5493;SDS011;2769;49.864;8.656;2023-02-28T12:15:26;6.70;;;6.10;;
5493;SDS011;2769;49.864;8.656;2023-02-28T12:18:02;5.63;;;5.13;;
5493;SDS011;2769;49.864;8.656;2023-02-28T12:20:40;6.03;;;5.50;;
5493;SDS011;2769;49.864;8.656;2023-02-28T12:26:17;5.70;;;5.10;;
5493;SDS011;2769;49.864;8.656;2023-02-28T12:28:48;5.73;;;5.10;;
5493;SDS011;2769;49.864;8.656;2023-02-28T12:31:20;7.63;;;5.50;;
5493;SDS011;2769;49.864;8.656;2023-02-28T12:33:51;9.83;;;5.70;;
5493;SDS011;2769;49.864;8.656;2023-02-28T12:36:24;6.80;;;5.60;;
5493;SDS011;2769;49.864;8.656;2023-02-28T12:38:55;6.27;;;5.63;;
5493;SDS011;2769;49.864;8.656;2023-02-28T12:41:27;6.97;;;6.30;;
5493;SDS011;2769;49.864;8.656;2023-02-28T12:44:01;7.27;;;6.10;;
5493;SDS011;2769;49.864;8.656;2023-02-28T12:46:32;6.33;;;5.70;;
5493;SDS011;2769;49.864;8.656;2023-02-28T12:49:06;8.17;;;6.70;;
5493;SDS011;2769;49.864;8.656;2023-02-28T12:51:36;6.60;;;5.80;;
5493;SDS011;2769;49.864;8.656;2023-02-28T12:54:07;6.10;;;5.50;;
5493;SDS011;2769;49.864;8.656;2023-02-28T12:56:42;8.03;;;6.20;;
5493;SDS011;2769;49.864;8.656;2023-02-28T12:59:14;7.57;;;5.83;;
5493;SDS011;2769;49.864;8.656;2023-02-28T13:05:06;6.37;;;5.67;;
5493;SDS011;2769;49.864;8.656;2023-02-28T13:07:45;6.20;;;5.60;;
5493;SDS011;2769;49.864;8.656;2023-02-28T13:10:37;6.83;;;6.13;;
5493;SDS011;2769;49.864;8.656;2023-02-28T13:13:13;6.03;;;5.43;;
5493;SDS011;2769;49.864;8.656;2023-02-28T13:15:56;7.50;;;6.30;;
5493;SDS011;2769;49.864;8.656;2023-02-28T13:18:30;8.10;;;6.73;;
5493;SDS011;2769;49.864;8.656;2023-02-28T13:21:01;6.90;;;6.27;;
5493;SDS011;2769;49.864;8.656;2023-02-28T13:23:37;7.43;;;6.47;;
5493;SDS011;2769;49.864;8.656;2023-02-28T13:26:07;7.33;;;6.63;;
5493;SDS011;2769;49.864;8.656;2023-02-28T13:34:47;6.53;;;5.93;;
5493;SDS011;2769;49.864;8.656;2023-02-28T13:44:10;6.80;;;6.20;;
5493;SDS011;2769;49.864;8.656;2023-02-28T13:49:49;8.10;;;6.00;;
5493;SDS011;2769;49.864;8.656;2023-02-28T13:52:19;6.67;;;6.07;;
5493;SDS011;2769;49.864;8.656;2023-02-28T13:55:06;7.00;;;6.40;;
5493;SDS011;2769;49.864;8.656;2023-02-28T13:57:52;8.73;;;5.60;;
5493;SDS011;2769;49.864;8.656;2023-02-28T14:00:29;6.27;;;5.70;;
5493;SDS011;2769;49.864;8.656;2023-02-28T14:03:08;6.37;;;5.77;;
5493;SDS011;2769;49.864;8.656;2023-02-28T14:06:10;6.40;;;5.90;;
5493;SDS011;2769;49.864;8.656;2023-02-28T14:08:52;6.53;;;5.87;;
5493;SDS011;2769;49.864;8.656;2023-02-28T14:11:25;7.50;;;5.83;;
5493;SDS011;2769;49.864;8.656;2023-02-28T14:14:02;5.80;;;5.30;;
5493;SDS011;2769;49.864;8.656;2023-02-28T14:16:35;6.77;;;5.97;;
5493;SDS011;2769;49.864;8.656;2023-02-28T14:19:09;6.13;;;5.53;;
5493;SDS011;2769;49.864;8.656;2023-02-28T14:21:40;6.57;;;6.00;;
5493;SDS011;2769;49.864;8.656;2023-02-28T14:27:29;10.23;;;6.00;;
5493;SDS011;2769;49.864;8.656;2023-02-28T14:36:12;7.03;;;6.00;;
5493;SDS011;2769;49.864;8.656;2023-02-28T14:38:45;7.00;;;5.83;;
5493;SDS011;2769;49.864;8.656;2023-02-28T14:41:16;7.40;;;5.77;;
5493;SDS011;2769;49.864;8.656;2023-02-28T14:43:50;6.50;;;5.80;;
5493;SDS011;2769;49.864;8.656;2023-02-28T14:46:19;7.13;;;5.73;;
5493;SDS011;2769;49.864;8.656;2023-02-28T14:48:48;6.23;;;5.63;;
5493;SDS011;2769;49.864;8.656;2023-02-28T14:51:20;6.90;;;5.90;;
5493;SDS011;2769;49.864;8.656;2023-02-28T14:53:50;5.30;;;4.90;;
5493;SDS011;2769;49.864;8.656;2023-02-28T14:56:22;5.90;;;5.40;;
5493;SDS011;2769;49.864;8.656;2023-02-28T14:58:54;5.97;;;5.37;;
5493;SDS011;2769;49.864;8.656;2023-02-28T15:01:24;6.33;;;5.73;;
5493;SDS011;2769;49.864;8.656;2023-02-28T15:04:03;9.57;;;5.70;;
5493;SDS011;2769;49.864;8.656;2023-02-28T15:06:32;5.57;;;5.07;;
5493;SDS011;2769;49.864;8.656;2023-02-28T15:09:07;6.90;;;5.23;;
5493;SDS011;2769;49.864;8.656;2023-02-28T15:11:36;6.10;;;5.60;;
5493;SDS011;2769;49.864;8.656;2023-02-28T15:14:06;6.17;;;5.47;;
5493;SDS011;2769;49.864;8.656;2023-02-28T15:16:36;6.83;;;6.00;;
5493;SDS011;2769;49.864;8.656;2023-02-28T15:19:06;6.40;;;5.80;;
5493;SDS011;2769;49.864;8.656;2023-02-28T15:21:36;6.20;;;5.60;;
5493;SDS011;2769;49.864;8.656;2023-02-28T15:24:06;9.77;;;6.57;;
5493;SDS011;2769;49.864;8.656;2023-02-28T15:26:38;7.80;;;6.10;;
5493;SDS011;2769;49.864;8.656;2023-02-28T15:29:12;6.70;;;5.60;;
5493;SDS011;2769;49.864;8.656;2023-02-28T15:31:43;8.50;;;6.00;;
5493;SDS011;2769;49.864;8.656;2023-02-28T15:34:26;6.33;;;5.73;;
5493;SDS011;2769;49.864;8.656;2023-02-28T15:39:54;7.73;;;5.93;;
5493;SDS011;2769;49.864;8.656;2023-02-28T15:42:28;9.67;;;6.13;;
5493;SDS011;2769;49.864;8.656;2023-02-28T15:44:59;8.33;;;5.97;;
5493;SDS011;2769;49.864;8.656;2023-02-28T15:47:27;6.87;;;5.77;;
5493;SDS011;2769;49.864;8.656;2023-02-28T15:49:57;8.40;;;5.70;;
5493;SDS011;2769;49.864;8.656;2023-02-28T15:52:28;9.03;;;5.33;;
5493;SDS011;2769;49.864;8.656;2023-02-28T15:54:58;6.47;;;5.33;;
5493;SDS011;2769;49.864;8.656;2023-02-28T15:57:28;6.53;;;5.53;;
5493;SDS011;2769;49.864;8.656;2023-02-28T15:59:57;6.20;;;5.60;;
5493;SDS011;2769;49.864;8.656;2023-02-28T16:02:37;6.50;;;5.63;;
5493;SDS011;2769;49.864;8.656;2023-02-28T16:05:18;6.30;;;5.70;;
5493;SDS011;2769;49.864;8.656;2023-02-28T16:07:54;8.50;;;5.40;;
5493;SDS011;2769;49.864;8.656;2023-02-28T16:10:23;6.50;;;5.27;;
5493;SDS011;2769;49.864;8.656;2023-02-28T16:12:53;6.20;;;5.53;;
5493;SDS011;2769;49.864;8.656;2023-02-28T16:15:23;8.03;;;5.50;;
5493;SDS011;2769;49.864;8.656;2023-02-28T16:17:52;9.83;;;5.60;;
5493;SDS011;2769;49.864;8.656;2023-02-28T16:20:21;5.83;;;5.30;;
5493;SDS011;2769;49.864;8.656;2023-02-28T16:22:50;8.50;;;5.87;;
5493;SDS011;2769;49.864;8.656;2023-02-28T16:25:20;8.57;;;6.23;;
5493;SDS011;2769;49.864;8.656;2023-02-28T16:27:49;7.03;;;5.47;;
5493;SDS011;2769;49.864;8.656;2023-02-28T16:30:20;9.30;;;6.10;;
5493;SDS011;2769;49.864;8.656;2023-02-28T16:32:51;7.23;;;5.77;;